createdAt,value
2023-05-18T00:03:17.947Z,8.90
2023-05-18T00:07:27.248Z,9.60
2023-05-18T00:11:39.956Z,7.73
2023-05-18T00:15:49.157Z,9.53
2023-05-18T00:20:01.314Z,7.67
2023-05-18T00:24:11.161Z,9.13
2023-05-18T00:28:20.372Z,6.83
2023-05-18T00:32:29.660Z,9.83
2023-05-18T00:36:41.105Z,8.47
2023-05-18T00:40:50.349Z,8.60
2023-05-18T00:44:59.789Z,8.00
2023-05-18T00:49:08.869Z,8.40
2023-05-18T00:53:19.636Z,9.03
2023-05-18T00:57:29.030Z,7.87
2023-05-18T01:01:44.030Z,6.93
2023-05-18T01:05:55.989Z,7.53
2023-05-18T01:10:07.754Z,8.53
2023-05-18T01:14:23.359Z,8.03
2023-05-18T01:18:40.016Z,8.53
2023-05-18T01:23:03.470Z,7.93
2023-05-18T01:27:17.046Z,11.27
2023-05-18T01:31:26.480Z,5.90
2023-05-18T01:35:37.691Z,9.13
2023-05-18T01:39:47.086Z,8.17
2023-05-18T01:44:03.749Z,9.03
2023-05-18T01:48:18.739Z,7.80
2023-05-18T01:52:34.453Z,7.23
2023-05-18T01:56:45.855Z,5.40
2023-05-18T02:00:57.102Z,6.03
2023-05-18T02:05:07.976Z,7.70
2023-05-18T02:09:17.345Z,5.40
2023-05-18T02:13:26.576Z,6.00
2023-05-18T02:17:39.387Z,9.23
2023-05-18T02:21:48.877Z,7.50
2023-05-18T02:25:58.376Z,7.83
2023-05-18T02:30:09.153Z,7.80
2023-05-18T02:34:20.063Z,6.00
2023-05-18T02:38:29.222Z,5.83
2023-05-18T02:42:38.395Z,6.27
2023-05-18T02:46:47.606Z,7.30
2023-05-18T02:50:59.216Z,6.97
2023-05-18T02:55:08.896Z,8.17
2023-05-18T02:59:18.215Z,7.87
2023-05-18T03:03:27.555Z,5.20
2023-05-18T03:07:38.797Z,6.07
2023-05-18T03:11:48.055Z,9.07
2023-05-18T03:15:58.187Z,11.07
2023-05-18T03:20:08.635Z,7.57
2023-05-18T03:24:20.905Z,7.17
2023-05-18T03:28:30.219Z,8.10
2023-05-18T03:32:39.486Z,7.67
2023-05-18T03:36:49.126Z,7.67
2023-05-18T03:40:59.793Z,7.03
2023-05-18T03:45:10.448Z,6.60
2023-05-18T03:49:19.605Z,6.53
2023-05-18T03:53:29.831Z,6.40
2023-05-18T03:57:40.981Z,7.23
2023-05-18T04:01:54.205Z,7.00
2023-05-18T04:06:03.809Z,7.33
2023-05-18T04:10:17.573Z,7.13
2023-05-18T04:14:29.093Z,6.63
2023-05-18T04:18:39.275Z,7.60
2023-05-18T04:22:50.213Z,6.23
2023-05-18T04:26:59.887Z,8.47
2023-05-18T04:31:14.844Z,5.70
2023-05-18T04:35:25.647Z,4.97
2023-05-18T04:39:35.628Z,4.73
2023-05-18T04:43:44.887Z,6.43
2023-05-18T04:47:56.237Z,4.97
2023-05-18T04:52:08.361Z,4.87
2023-05-18T04:56:18.007Z,5.03
2023-05-18T05:00:29.430Z,4.17
2023-05-18T05:04:40.134Z,5.00
2023-05-18T05:08:50.512Z,7.13
2023-05-18T05:12:59.915Z,7.83
2023-05-18T05:17:09.261Z,4.33
2023-05-18T05:21:20.010Z,4.93
2023-05-18T05:25:29.517Z,7.40
2023-05-18T05:29:38.751Z,6.93
2023-05-18T05:33:48.238Z,5.13
2023-05-18T05:37:59.005Z,5.07
2023-05-18T05:42:09.102Z,5.30
2023-05-18T05:46:19.019Z,6.57
2023-05-18T05:50:29.357Z,6.70
2023-05-18T05:54:40.048Z,4.80
2023-05-18T05:58:49.299Z,7.17
2023-05-18T06:02:59.162Z,3.97
2023-05-18T06:07:08.683Z,3.63
2023-05-18T06:11:19.534Z,4.77
2023-05-18T06:15:28.875Z,8.57
2023-05-18T06:19:38.354Z,6.27
2023-05-18T06:23:47.680Z,5.27
2023-05-18T06:27:58.463Z,6.30
2023-05-18T06:32:08.654Z,5.37
2023-05-18T06:36:18.209Z,6.33
2023-05-18T06:40:27.716Z,4.57
2023-05-18T06:44:38.532Z,5.40
2023-05-18T06:48:47.864Z,4.83
2023-05-18T06:52:57.185Z,4.90
2023-05-18T06:57:06.861Z,5.60
2023-05-18T07:01:19.822Z,4.83
2023-05-18T07:05:29.715Z,6.07
2023-05-18T07:09:39.362Z,4.90
2023-05-18T07:13:48.715Z,4.60
2023-05-18T07:18:00.182Z,4.07
2023-05-18T07:22:09.442Z,3.87
2023-05-18T07:26:18.844Z,3.97
2023-05-18T07:30:28.727Z,5.13
2023-05-18T07:34:39.608Z,6.23
2023-05-18T07:38:53.505Z,4.00
2023-05-18T07:43:02.654Z,4.67
2023-05-18T07:47:13.276Z,6.40
2023-05-18T07:51:24.535Z,5.93
2023-05-18T07:55:34.197Z,5.43
2023-05-18T07:59:43.587Z,3.97
2023-05-18T08:03:53.511Z,4.87
2023-05-18T08:08:06.577Z,5.60
2023-05-18T08:12:16.336Z,5.80
2023-05-18T08:16:25.751Z,4.10
2023-05-18T08:20:35.433Z,4.70
2023-05-18T08:24:47.176Z,4.70
2023-05-18T08:28:56.612Z,5.33
2023-05-18T08:33:06.908Z,5.83
2023-05-18T08:37:16.402Z,5.33
2023-05-18T08:41:32.503Z,5.93
2023-05-18T08:45:46.999Z,4.60
2023-05-18T08:49:59.283Z,4.20
2023-05-18T08:54:11.115Z,5.87
2023-05-18T08:58:23.094Z,5.13
2023-05-18T09:02:33.351Z,5.17
2023-05-18T09:06:43.247Z,5.63
2023-05-18T09:10:53.792Z,4.07
2023-05-18T09:15:05.382Z,4.30
2023-05-18T09:19:14.869Z,4.17
2023-05-18T09:23:25.787Z,5.37
2023-05-18T09:27:35.945Z,3.60
2023-05-18T09:31:47.733Z,4.50
2023-05-18T09:36:02.312Z,4.03
2023-05-18T09:40:12.300Z,4.40
2023-05-18T09:44:34.061Z,4.83
2023-05-18T09:48:47.777Z,4.73
2023-05-18T09:52:58.653Z,5.23
2023-05-18T10:02:24.152Z,6.07
2023-05-18T10:06:37.621Z,5.20
2023-05-18T10:10:49.402Z,6.27
2023-05-18T10:14:59.767Z,5.07
2023-05-18T10:56:34.608Z,5.30
2023-05-18T13:40:31.269Z,4.93
2023-05-18T18:25:47.804Z,7.93
2023-05-18T18:40:22.641Z,7.47
2023-05-18T18:44:33.517Z,6.43
2023-05-18T18:48:42.784Z,7.90
2023-05-18T18:57:37.224Z,10.10
2023-05-18T19:02:11.909Z,7.73
2023-05-18T19:06:24.276Z,8.57
2023-05-18T19:10:34.876Z,6.53
2023-05-18T19:14:46.440Z,6.57
2023-05-18T19:18:55.575Z,7.90
2023-05-18T19:23:06.141Z,6.47
2023-05-18T19:27:15.624Z,6.40
2023-05-18T19:31:26.556Z,5.73
2023-05-18T19:35:35.773Z,8.43
2023-05-18T19:39:45.485Z,8.30
2023-05-18T19:43:55.549Z,6.87
2023-05-18T19:48:06.554Z,7.63
2023-05-18T19:52:17.688Z,9.47
2023-05-18T19:56:26.886Z,7.17
2023-05-18T20:00:38.330Z,7.27
2023-05-18T20:04:49.382Z,7.63
2023-05-18T20:08:58.485Z,8.67
2023-05-18T20:13:07.612Z,6.83
2023-05-18T20:17:17.181Z,7.53
2023-05-18T20:21:27.990Z,8.47
2023-05-18T20:25:37.124Z,6.03
2023-05-18T20:29:46.573Z,6.90
2023-05-18T20:33:57.845Z,7.53
2023-05-18T20:38:09.937Z,7.53
2023-05-18T20:42:22.091Z,7.47
2023-05-18T20:46:34.299Z,6.77
2023-05-18T20:50:43.519Z,6.67
2023-05-18T20:54:54.649Z,7.33
2023-05-18T20:59:06.115Z,6.57
2023-05-18T21:03:23.457Z,6.97
2023-05-18T21:07:34.713Z,9.30
2023-05-18T21:11:45.480Z,8.33
2023-05-18T21:15:54.792Z,10.13
2023-05-18T21:20:04.243Z,8.83
2023-05-18T21:24:13.426Z,8.40
2023-05-18T21:28:25.220Z,8.30
2023-05-18T21:32:34.698Z,8.93
2023-05-18T21:36:44.535Z,10.93
2023-05-18T21:40:53.835Z,8.27
2023-05-18T21:45:04.628Z,9.50
2023-05-18T21:49:14.088Z,11.63
2023-05-18T21:53:23.233Z,11.27
2023-05-18T21:57:33.213Z,9.67
2023-05-18T22:01:43.935Z,11.10
2023-05-18T22:05:53.225Z,10.97
2023-05-18T22:10:02.472Z,11.63
2023-05-18T22:14:11.681Z,9.77
2023-05-18T22:18:24.068Z,10.87
2023-05-18T22:22:33.763Z,10.10
2023-05-18T22:26:44.391Z,8.57
2023-05-18T22:30:54.293Z,8.80
2023-05-18T22:35:05.621Z,11.87
2023-05-18T22:39:17.497Z,10.80
2023-05-18T22:43:26.773Z,11.83
2023-05-18T22:47:36.001Z,13.30
2023-05-18T22:51:47.632Z,14.27
2023-05-18T22:55:58.530Z,11.50
2023-05-18T23:00:11.137Z,13.07
2023-05-18T23:04:21.309Z,11.63
2023-05-18T23:08:32.396Z,13.60
2023-05-18T23:12:42.508Z,14.03
2023-05-18T23:16:53.678Z,14.57
2023-05-18T23:21:03.347Z,16.67
2023-05-18T23:25:14.164Z,11.97
2023-05-18T23:29:23.804Z,15.23
2023-05-18T23:33:33.678Z,13.67
2023-05-18T23:37:52.468Z,11.63
2023-05-18T23:42:04.365Z,10.37
2023-05-18T23:46:14.511Z,10.80
2023-05-18T23:50:24.593Z,14.17
2023-05-18T23:54:34.297Z,14.03
2023-05-18T23:58:46.383Z,11.43
